Time;durP1;ratioP1;P1;durP2;ratioP2;P2;SDS_P1;SDS_P2;PMS_P1;PMS_P2;Temp;Humidity;BMP_temperature;BMP_pressure;BME280_temperature;BME280_humidity;BME280_pressure;Samples;Min_cycle;Max_cycle;Signal;HPM_P1;HPM_P2
2021/05/10 00:00:18;;;;;;;2.40;2.20;;;18.20;67.70;;;;;;5058408;28;20458;-80
2021/05/10 00:02:44;;;;;;;2.73;2.53;;;18.20;68.20;;;;;;5058608;28;20462;-80
2021/05/10 00:05:11;;;;;;;2.80;2.60;;;18.20;68.20;;;;;;5058562;28;20456;-80
2021/05/10 00:07:37;;;;;;;3.67;3.37;;;18.30;67.90;;;;;;5059039;28;20463;-78
2021/05/10 00:10:04;;;;;;;3.30;3.00;;;18.20;67.80;;;;;;5058083;28;20804;-80
2021/05/10 00:12:30;;;;;;;4.47;3.13;;;18.30;67.60;;;;;;5058207;28;20846;-80
2021/05/10 00:14:58;;;;;;;2.70;2.50;;;18.30;66.90;;;;;;5066672;28;20439;-78
2021/05/10 00:17:24;;;;;;;3.20;3.00;;;18.40;66.60;;;;;;5069372;28;20456;-78
2021/05/10 00:19:50;;;;;;;2.47;2.27;;;18.40;66.20;;;;;;5068473;28;20876;-77
2021/05/10 00:22:17;;;;;;;2.73;2.53;;;18.40;65.80;;;;;;5060199;28;20499;-80
2021/05/10 00:24:43;;;;;;;3.40;2.50;;;18.50;65.50;;;;;;5057938;28;20462;-78
2021/05/10 00:27:09;;;;;;;3.13;2.93;;;18.50;64.20;;;;;;5058490;28;20448;-82
2021/05/10 00:29:35;;;;;;;2.47;1.87;;;18.50;63.90;;;;;;5058545;28;20470;-81
2021/05/10 00:32:03;;;;;;;2.83;2.23;;;18.50;64.10;;;;;;5057949;28;20499;-80
2021/05/10 00:34:29;;;;;;;2.20;2.10;;;18.60;64.10;;;;;;5057902;28;20827;-80
2021/05/10 00:36:55;;;;;;;2.67;2.47;;;18.60;63.60;;;;;;5057442;28;20452;-80
2021/05/10 00:39:22;;;;;;;3.83;2.90;;;18.60;63.50;;;;;;5057960;28;20451;-80
2021/05/10 00:41:48;;;;;;;3.90;2.37;;;18.70;62.70;;;;;;5057995;28;20507;-80
2021/05/10 00:44:14;;;;;;;2.33;2.13;;;18.60;62.70;;;;;;5057657;28;20794;-79
2021/05/10 00:46:42;;;;;;;3.30;3.10;;;18.60;62.30;;;;;;5058577;28;20810;-81
2021/05/10 00:49:09;;;;;;;2.80;2.60;;;18.60;63.80;;;;;;5059185;28;20812;-82
2021/05/10 00:51:35;;;;;;;2.80;2.30;;;18.60;63.90;;;;;;5058150;28;20477;-82
2021/05/10 00:54:02;;;;;;;3.10;2.40;;;18.50;63.30;;;;;;5058293;28;20455;-82
2021/05/10 00:56:28;;;;;;;3.47;3.27;;;18.40;64.20;;;;;;5058315;28;20469;-82
2021/05/10 00:58:55;;;;;;;4.60;2.70;;;18.40;64.80;;;;;;5058882;28;20458;-82
2021/05/10 01:01:21;;;;;;;2.80;2.60;;;18.30;64.80;;;;;;5057481;28;20994;-81
2021/05/10 01:03:50;;;;;;;5.07;4.73;;;18.20;64.80;;;;;;5058786;28;20451;-82
2021/05/10 01:06:17;;;;;;;5.50;4.57;;;18.20;65.10;;;;;;5058843;28;20858;-82
2021/05/10 01:08:43;;;;;;;3.80;3.60;;;18.10;65.60;;;;;;5057420;28;20780;-80
2021/05/10 01:11:10;;;;;;;4.77;4.37;;;18.00;66.30;;;;;;5057347;28;20473;-80
2021/05/10 01:13:36;;;;;;;5.13;4.57;;;17.90;67.10;;;;;;5057147;28;20454;-80
2021/05/10 01:16:03;;;;;;;4.67;3.63;;;17.80;67.70;;;;;;5057665;28;20465;-80
2021/05/10 01:18:29;;;;;;;4.60;4.13;;;17.70;68.60;;;;;;5057097;28;20961;-79
2021/05/10 01:20:56;;;;;;;3.30;3.00;;;17.60;69.40;;;;;;5056622;28;20497;-79
2021/05/10 01:23:23;;;;;;;2.90;2.63;;;17.50;70.20;;;;;;5057266;28;20456;-80
2021/05/10 01:25:50;;;;;;;2.90;2.70;;;17.40;70.90;;;;;;5057091;28;20869;-79
2021/05/10 01:28:16;;;;;;;2.77;2.57;;;17.40;71.30;;;;;;5057069;28;20455;-80
2021/05/10 01:30:47;;;;;;;3.17;2.90;;;17.30;71.70;;;;;;5056879;28;20467;-82
2021/05/10 01:33:14;;;;;;;5.07;2.90;;;17.20;72.60;;;;;;5056551;28;20489;-80
2021/05/10 01:35:42;;;;;;;3.20;2.47;;;17.10;73.10;;;;;;5057163;28;20457;-80
2021/05/10 01:38:09;;;;;;;2.73;2.53;;;17.00;73.60;;;;;;5056781;28;20939;-80
2021/05/10 01:40:37;;;;;;;4.40;2.37;;;16.90;74.20;;;;;;5056845;28;20993;-78
2021/05/10 01:43:04;;;;;;;2.60;2.40;;;16.80;74.70;;;;;;5056288;28;20451;-78
2021/05/10 01:45:30;;;;;;;2.60;2.40;;;16.80;75.50;;;;;;5056542;28;20465;-79
2021/05/10 01:47:59;;;;;;;2.67;2.43;;;16.70;75.70;;;;;;5056214;28;20453;-80
2021/05/10 01:50:25;;;;;;;2.70;2.53;;;16.70;76.40;;;;;;5056908;28;20449;-80
2021/05/10 01:52:52;;;;;;;3.27;2.87;;;16.60;76.90;;;;;;5057856;28;20476;-81
2021/05/10 01:55:21;;;;;;;4.80;2.70;;;16.50;77.40;;;;;;5056662;28;20455;-80
2021/05/10 01:57:49;;;;;;;2.97;2.77;;;16.50;78.10;;;;;;5056618;28;20831;-80
2021/05/10 02:00:18;;;;;;;2.70;2.30;;;16.40;78.70;;;;;;5056237;28;20457;-80
2021/05/10 02:02:44;;;;;;;2.93;2.73;;;16.40;79.30;;;;;;5056055;28;20468;-80
2021/05/10 02:05:14;;;;;;;2.30;2.20;;;16.30;80.00;;;;;;5056685;28;20543;-81
2021/05/10 02:07:43;;;;;;;2.80;2.60;;;16.30;81.30;;;;;;5058146;28;20445;-82
2021/05/10 02:10:13;;;;;;;3.10;2.80;;;16.20;82.10;;;;;;5057158;28;20856;-82
2021/05/10 02:12:39;;;;;;;2.60;2.40;;;16.20;83.00;;;;;;5056695;28;20442;-77
2021/05/10 02:15:09;;;;;;;2.77;2.50;;;16.20;84.00;;;;;;5056672;28;20514;-80
2021/05/10 02:17:36;;;;;;;3.00;2.80;;;16.20;84.50;;;;;;5056808;28;20449;-79
2021/05/10 02:20:05;;;;;;;2.80;2.60;;;16.10;84.80;;;;;;5056482;28;20776;-80
2021/05/10 02:22:32;;;;;;;2.80;2.60;;;16.10;85.90;;;;;;5056042;28;20489;-80
2021/05/10 02:24:58;;;;;;;3.03;2.83;;;16.10;86.50;;;;;;5056437;28;20449;-80
2021/05/10 02:27:24;;;;;;;3.17;2.97;;;16.10;87.10;;;;;;5055855;28;20479;-79
2021/05/10 02:29:50;;;;;;;2.90;2.67;;;16.10;87.40;;;;;;5056198;28;20453;-81
2021/05/10 02:32:17;;;;;;;3.30;3.10;;;16.10;87.60;;;;;;5056028;28;20502;-81
2021/05/10 02:34:44;;;;;;;3.17;2.87;;;16.00;88.20;;;;;;5056084;28;20487;-82
2021/05/10 02:37:12;;;;;;;2.97;2.70;;;16.10;89.00;;;;;;5056206;28;20491;-82
2021/05/10 02:39:38;;;;;;;3.20;2.80;;;16.00;89.80;;;;;;5055703;28;20461;-78
2021/05/10 02:42:05;;;;;;;2.63;2.53;;;16.00;90.20;;;;;;5054645;28;20497;-81
2021/05/10 02:44:32;;;;;;;3.27;2.97;;;16.00;90.30;;;;;;5055217;28;20487;-79
2021/05/10 02:46:58;;;;;;;2.83;2.63;;;15.90;90.70;;;;;;5058257;28;20457;-80
2021/05/10 02:49:25;;;;;;;3.20;3.00;;;16.00;91.00;;;;;;5059903;28;20447;-80
2021/05/10 02:51:51;;;;;;;3.10;2.90;;;15.90;90.90;;;;;;5059940;28;20464;-82
2021/05/10 02:54:17;;;;;;;2.97;2.87;;;15.80;90.80;;;;;;5059908;28;20471;-80
2021/05/10 02:56:43;;;;;;;2.80;2.60;;;15.90;91.10;;;;;;5059954;28;20531;-80
2021/05/10 02:59:10;;;;;;;2.60;2.40;;;15.80;91.30;;;;;;5059775;28;20462;-80
2021/05/10 03:01:36;;;;;;;2.80;2.60;;;15.80;91.30;;;;;;5058668;28;20495;-79
2021/05/10 03:04:03;;;;;;;2.80;2.60;;;15.70;90.80;;;;;;5059670;28;20971;-80
2021/05/10 03:06:30;;;;;;;2.33;2.23;;;15.70;90.60;;;;;;5060103;28;20493;-79
2021/05/10 03:08:56;;;;;;;3.17;2.97;;;15.70;90.50;;;;;;5058280;28;20462;-80
2021/05/10 03:11:22;;;;;;;3.00;2.80;;;15.70;90.70;;;;;;5046847;28;20472;-80
2021/05/10 03:13:48;;;;;;;2.43;2.23;;;15.60;90.70;;;;;;5048578;28;20448;-80
2021/05/10 03:16:15;;;;;;;5.73;2.50;;;15.60;90.70;;;;;;5048976;28;20447;-80
2021/05/10 03:18:41;;;;;;;2.80;2.60;;;15.60;90.90;;;;;;5047157;28;20446;-80
2021/05/10 03:21:07;;;;;;;3.13;2.77;;;15.60;91.40;;;;;;5048880;28;20506;-79
2021/05/10 03:23:34;;;;;;;7.43;4.07;;;15.50;92.50;;;;;;5048311;28;20460;-80
2021/05/10 03:26:01;;;;;;;3.50;3.07;;;15.40;93.10;;;;;;5047234;28;20439;-80
2021/05/10 03:28:27;;;;;;;3.57;3.27;;;15.40;93.40;;;;;;5048559;28;20499;-80
2021/05/10 03:30:53;;;;;;;3.17;2.87;;;15.30;93.60;;;;;;5049097;28;20464;-80
2021/05/10 03:33:19;;;;;;;4.50;3.20;;;15.30;93.80;;;;;;5047143;28;20476;-80
2021/05/10 03:35:45;;;;;;;3.03;2.83;;;15.30;93.80;;;;;;5049411;28;20434;-78
2021/05/10 03:38:12;;;;;;;5.10;4.57;;;15.30;94.00;;;;;;5048255;28;20497;-79
2021/05/10 03:40:39;;;;;;;9.73;4.60;;;15.30;93.80;;;;;;5049621;28;20461;-78
2021/05/10 03:43:05;;;;;;;5.70;4.60;;;15.40;93.80;;;;;;5051668;28;20454;-78
2021/05/10 03:45:32;;;;;;;3.80;3.50;;;15.40;93.80;;;;;;5050323;28;20441;-77
2021/05/10 03:47:59;;;;;;;4.47;4.07;;;15.40;93.90;;;;;;5052880;28;20452;-77
2021/05/10 03:50:25;;;;;;;3.10;2.80;;;15.50;94.10;;;;;;5052778;28;20484;-77
2021/05/10 03:52:51;;;;;;;3.70;3.40;;;15.50;94.00;;;;;;5050035;28;20475;-78
2021/05/10 03:55:19;;;;;;;3.57;3.27;;;15.60;94.30;;;;;;5052321;28;20453;-78
2021/05/10 03:57:47;;;;;;;4.07;3.53;;;15.60;94.20;;;;;;5052061;28;20495;-77
2021/05/10 04:00:15;;;;;;;3.40;2.70;;;15.70;94.10;;;;;;5060595;28;20493;-77
2021/05/10 04:02:42;;;;;;;2.60;2.40;;;15.80;92.80;;;;;;5056179;28;20488;-78
2021/05/10 04:05:15;;;;;;;3.67;2.33;;;15.80;90.60;;;;;;5054174;28;20474;-77
2021/05/10 04:07:47;;;;;;;2.03;1.93;;;15.80;88.60;;;;;;5053871;28;20450;-78
2021/05/10 04:15:49;;;;;;;2.60;2.10;;;16.30;83.00;;;;;;5054240;28;20441;-77
2021/05/10 04:18:16;;;;;;;2.20;2.07;;;16.50;81.60;;;;;;5055848;28;20446;-78
2021/05/10 04:20:42;;;;;;;2.20;2.10;;;16.70;79.50;;;;;;5053156;28;20473;-77
2021/05/10 04:23:10;;;;;;;2.67;2.47;;;16.90;79.50;;;;;;5057668;28;20953;-78
2021/05/10 04:25:36;;;;;;;1.70;1.60;;;17.10;78.20;;;;;;5055107;28;20453;-79
2021/05/10 04:28:04;;;;;;;1.93;1.73;;;17.30;77.10;;;;;;5061571;28;20454;-77
2021/05/10 04:30:30;;;;;;;3.00;1.93;;;17.40;76.70;;;;;;5063677;28;20512;-79
2021/05/10 04:33:00;;;;;;;2.07;1.97;;;17.40;75.80;;;;;;5059496;28;20450;-80
2021/05/10 04:35:26;;;;;;;1.73;1.63;;;17.60;74.40;;;;;;5057839;28;20465;-80
2021/05/10 04:37:52;;;;;;;1.93;1.63;;;17.70;73.50;;;;;;5057445;28;20490;-80
2021/05/10 04:40:19;;;;;;;2.03;1.90;;;17.90;73.10;;;;;;5057880;28;20452;-80
2021/05/10 04:42:47;;;;;;;3.73;2.17;;;18.00;72.70;;;;;;5057674;28;20496;-80
2021/05/10 04:45:16;;;;;;;2.23;2.03;;;18.20;71.60;;;;;;5056508;28;20987;-80
2021/05/10 04:47:42;;;;;;;2.60;2.40;;;18.40;70.80;;;;;;5057585;28;20505;-80
2021/05/10 04:50:10;;;;;;;2.90;1.70;;;18.40;71.40;;;;;;5058061;28;20522;-80
2021/05/10 04:52:37;;;;;;;2.00;1.90;;;18.50;70.60;;;;;;5056921;28;20983;-80
2021/05/10 04:55:05;;;;;;;2.00;1.90;;;18.60;70.00;;;;;;5057069;28;20505;-79
2021/05/10 04:57:31;;;;;;;2.17;1.97;;;18.70;68.50;;;;;;5057124;28;20574;-79
2021/05/10 04:59:57;;;;;;;1.57;1.47;;;18.90;68.20;;;;;;5056901;28;20452;-80
2021/05/10 05:02:25;;;;;;;1.80;1.70;;;19.10;67.90;;;;;;5056725;28;20487;-80
2021/05/10 05:04:51;;;;;;;1.93;1.63;;;19.20;67.30;;;;;;5057082;28;20449;-80
2021/05/10 05:07:17;;;;;;;3.20;1.80;;;19.30;66.90;;;;;;5057226;28;20437;-79
2021/05/10 05:09:44;;;;;;;2.27;2.10;;;19.40;66.80;;;;;;5056934;28;20453;-80
2021/05/10 05:12:10;;;;;;;2.00;1.80;;;19.50;66.00;;;;;;5061989;28;20456;-80
2021/05/10 05:14:37;;;;;;;2.50;1.80;;;19.60;65.50;;;;;;5069569;28;20450;-77
2021/05/10 05:17:03;;;;;;;1.83;1.53;;;19.70;65.00;;;;;;5062966;28;20454;-78
2021/05/10 05:19:30;;;;;;;3.77;3.10;;;19.80;65.40;;;;;;5060950;28;20458;-79
2021/05/10 05:21:57;;;;;;;4.40;3.23;;;19.80;68.30;;;;;;5057311;28;20491;-82
2021/05/10 05:24:23;;;;;;;3.20;2.60;;;19.80;69.70;;;;;;5058837;28;20960;-80
2021/05/10 05:26:49;;;;;;;3.10;2.80;;;19.90;70.30;;;;;;5056948;28;20556;-80
2021/05/10 05:29:19;;;;;;;4.47;2.50;;;19.90;71.00;;;;;;5056581;28;20460;-80
2021/05/10 05:31:45;;;;;;;5.30;2.90;;;19.90;71.00;;;;;;5056266;28;20472;-80
2021/05/10 05:34:12;;;;;;;5.33;3.10;;;19.90;71.20;;;;;;5056741;28;20468;-79
2021/05/10 05:36:39;;;;;;;2.50;2.30;;;20.00;72.00;;;;;;5057364;28;20453;-79
2021/05/10 05:39:07;;;;;;;3.67;2.90;;;20.00;72.80;;;;;;5063152;28;20547;-77
2021/05/10 05:41:33;;;;;;;3.00;2.60;;;20.00;73.30;;;;;;5065302;28;20476;-82
2021/05/10 05:43:59;;;;;;;3.13;2.83;;;20.10;72.70;;;;;;5064123;28;20912;-78
2021/05/10 05:46:27;;;;;;;2.17;1.97;;;20.10;71.90;;;;;;5062949;28;20945;-82
2021/05/10 05:48:54;;;;;;;3.43;3.00;;;20.20;72.10;;;;;;5062266;28;20444;-84
2021/05/10 05:51:21;;;;;;;5.27;2.53;;;20.30;73.30;;;;;;5064585;28;20472;-79
2021/05/10 05:53:51;;;;;;;3.53;2.87;;;20.30;73.00;;;;;;5063527;28;20534;-81
2021/05/10 05:56:17;;;;;;;2.30;2.10;;;20.40;71.80;;;;;;5059005;28;20441;-81
2021/05/10 05:58:44;;;;;;;3.00;2.70;;;20.40;72.10;;;;;;5058923;28;20485;-81
2021/05/10 06:01:10;;;;;;;4.30;2.50;;;20.40;73.60;;;;;;5060196;28;20518;-82
2021/05/10 06:03:36;;;;;;;2.70;2.50;;;20.50;69.90;;;;;;5058764;28;20450;-81
2021/05/10 06:06:02;;;;;;;6.50;2.80;;;20.50;69.30;;;;;;5058983;28;20487;-82
2021/05/10 06:08:29;;;;;;;2.97;1.97;;;20.60;67.60;;;;;;5057930;28;20450;-81
2021/05/10 06:10:56;;;;;;;3.30;1.67;;;20.60;67.90;;;;;;5058108;28;20473;-79
2021/05/10 06:13:22;;;;;;;4.97;3.10;;;20.60;67.60;;;;;;5056886;28;20478;-80
2021/05/10 06:15:48;;;;;;;2.10;1.90;;;20.70;67.50;;;;;;5057424;28;20452;-79
2021/05/10 06:18:15;;;;;;;2.53;2.30;;;20.70;68.90;;;;;;5058372;28;20516;-79
2021/05/10 06:20:42;;;;;;;2.63;2.10;;;20.80;68.60;;;;;;5057440;28;20848;-80
2021/05/10 06:23:08;;;;;;;3.40;2.30;;;20.90;69.80;;;;;;5060061;28;20859;-79
2021/05/10 06:25:34;;;;;;;2.70;2.40;;;20.90;66.90;;;;;;5061149;28;20451;-79
2021/05/10 06:28:01;;;;;;;3.10;2.47;;;21.00;69.10;;;;;;5060685;28;20501;-79
2021/05/10 06:30:27;;;;;;;3.27;2.50;;;21.10;72.10;;;;;;5060475;28;20463;-78
2021/05/10 06:32:54;;;;;;;4.13;2.90;;;21.20;73.70;;;;;;5060981;28;20444;-79
2021/05/10 06:35:21;;;;;;;2.67;2.30;;;21.40;75.00;;;;;;5060021;28;20986;-79
2021/05/10 06:37:47;;;;;;;2.50;2.20;;;21.50;73.10;;;;;;5050586;28;20810;-79
2021/05/10 06:40:14;;;;;;;2.47;2.27;;;21.60;71.30;;;;;;5060186;28;20468;-78
2021/05/10 06:42:40;;;;;;;3.97;2.30;;;21.70;70.00;;;;;;5060389;28;20497;-78
2021/05/10 06:45:08;;;;;;;4.27;2.13;;;21.80;69.40;;;;;;5060328;28;20459;-78
2021/05/10 06:47:37;;;;;;;3.40;2.10;;;21.90;68.50;;;;;;5057332;28;20535;-78
2021/05/10 06:50:05;;;;;;;2.80;2.27;;;21.90;66.40;;;;;;5048554;28;20970;-78
2021/05/10 06:52:31;;;;;;;2.10;2.00;;;21.90;68.70;;;;;;5049600;28;20483;-79
2021/05/10 06:54:57;;;;;;;2.23;2.13;;;21.90;67.70;;;;;;5050488;28;20444;-78
2021/05/10 06:57:24;;;;;;;3.13;2.13;;;21.90;66.80;;;;;;5061417;28;20450;-79
2021/05/10 06:59:50;;;;;;;5.60;2.37;;;22.00;66.80;;;;;;5060236;28;20471;-78
2021/05/10 07:02:19;;;;;;;4.50;2.80;;;22.00;67.30;;;;;;5059157;28;20484;-79
2021/05/10 07:04:45;;;;;;;2.27;1.93;;;21.90;63.90;;;;;;5059609;28;20966;-79
2021/05/10 07:07:11;;;;;;;3.00;2.30;;;21.90;63.40;;;;;;5058472;28;20455;-80
2021/05/10 07:09:38;;;;;;;2.30;2.10;;;22.00;62.80;;;;;;5059706;28;20461;-80
2021/05/10 07:12:05;;;;;;;2.13;1.93;;;22.00;63.30;;;;;;5062323;28;20468;-83
2021/05/10 07:14:31;;;;;;;3.03;2.73;;;21.90;64.70;;;;;;5062405;28;20453;-82
2021/05/10 07:16:57;;;;;;;2.60;1.90;;;21.80;64.90;;;;;;5062036;28;20824;-83
2021/05/10 07:19:26;;;;;;;2.10;2.00;;;21.80;64.00;;;;;;5062128;28;20455;-82
2021/05/10 07:21:52;;;;;;;2.40;2.20;;;21.90;65.10;;;;;;5062151;28;20508;-81
2021/05/10 07:24:18;;;;;;;2.47;2.13;;;22.00;66.70;;;;;;5061295;28;20528;-83
2021/05/10 07:26:45;;;;;;;1.97;1.87;;;22.00;65.80;;;;;;5041969;28;20464;-81
2021/05/10 07:29:11;;;;;;;4.20;2.40;;;22.10;66.00;;;;;;5041492;28;20435;-81
2021/05/10 07:31:37;;;;;;;4.00;1.97;;;22.20;66.60;;;;;;5040377;28;20476;-82
2021/05/10 07:34:04;;;;;;;2.73;2.10;;;22.50;67.50;;;;;;5052458;28;20455;-83
2021/05/10 07:36:31;;;;;;;1.73;1.63;;;22.60;66.60;;;;;;5060751;28;20455;-81
2021/05/10 07:38:59;;;;;;;2.13;1.90;;;22.60;65.20;;;;;;5060581;28;20452;-82
2021/05/10 07:41:25;;;;;;;1.87;1.73;;;22.50;65.70;;;;;;5059553;28;20502;-81
2021/05/10 07:43:53;;;;;;;4.30;2.30;;;22.50;66.60;;;;;;5059885;28;21029;-85
2021/05/10 07:46:20;;;;;;;3.53;2.23;;;22.60;66.90;;;;;;5059825;28;20543;-82
2021/05/10 07:48:46;;;;;;;3.77;2.50;;;22.70;67.60;;;;;;5060523;28;20864;-83
2021/05/10 07:51:12;;;;;;;2.17;2.07;;;22.60;66.50;;;;;;5060534;28;20481;-83
2021/05/10 07:53:39;;;;;;;3.23;2.60;;;22.50;67.90;;;;;;5060048;28;20454;-84
2021/05/10 07:56:05;;;;;;;2.50;2.30;;;22.50;67.30;;;;;;5059831;28;20936;-84
2021/05/10 07:58:32;;;;;;;2.53;2.30;;;22.50;67.60;;;;;;5059954;28;20458;-86
2021/05/10 08:01:01;;;;;;;2.40;2.10;;;22.60;69.10;;;;;;5059643;28;20486;-85
2021/05/10 08:03:29;;;;;;;2.10;2.00;;;22.60;68.50;;;;;;5060510;28;20459;-81
2021/05/10 08:05:55;;;;;;;4.13;1.80;;;22.70;68.00;;;;;;5059110;28;20482;-81
2021/05/10 08:08:23;;;;;;;3.63;3.43;;;22.70;67.40;;;;;;5059788;28;20456;-83
2021/05/10 08:10:50;;;;;;;3.07;2.60;;;22.70;67.40;;;;;;5059847;28;20468;-82
2021/05/10 08:13:17;;;;;;;2.30;2.20;;;22.70;68.10;;;;;;5059830;28;20463;-83
2021/05/10 08:15:44;;;;;;;6.80;2.67;;;22.80;68.70;;;;;;5060003;28;20463;-81
2021/05/10 08:18:11;;;;;;;4.10;3.40;;;22.90;70.70;;;;;;5059944;28;20456;-84
2021/05/10 08:20:37;;;;;;;3.43;3.00;;;22.90;70.90;;;;;;5060151;28;20539;-81
2021/05/10 08:23:04;;;;;;;6.67;2.50;;;23.00;70.80;;;;;;5059049;28;20490;-82
2021/05/10 08:25:30;;;;;;;3.03;2.73;;;23.20;71.10;;;;;;5060175;28;20452;-82
2021/05/10 08:27:57;;;;;;;2.33;2.23;;;23.30;71.60;;;;;;5072708;28;20471;-81
2021/05/10 08:30:24;;;;;;;3.73;2.53;;;23.50;71.40;;;;;;5074215;28;20420;-81
2021/05/10 08:32:51;;;;;;;2.50;2.30;;;23.70;70.60;;;;;;5074296;28;20482;-82
2021/05/10 08:35:17;;;;;;;4.37;2.40;;;23.80;69.90;;;;;;5074743;28;20455;-81
2021/05/10 08:37:44;;;;;;;2.60;2.40;;;23.90;70.80;;;;;;5067587;28;20546;-84
2021/05/10 08:40:11;;;;;;;2.50;2.27;;;23.90;70.70;;;;;;5059967;28;20463;-84
2021/05/10 08:42:37;;;;;;;5.93;3.00;;;23.90;70.50;;;;;;5060256;28;20492;-83
2021/05/10 08:45:05;;;;;;;4.50;2.70;;;23.90;71.10;;;;;;5051241;28;20522;-81
2021/05/10 08:47:35;;;;;;;2.60;2.40;;;23.80;71.40;;;;;;5039541;28;20962;-80
2021/05/10 08:50:05;;;;;;;3.50;3.20;;;23.80;70.30;;;;;;5039505;28;20543;-80
2021/05/10 08:52:33;;;;;;;4.93;2.20;;;23.70;70.80;;;;;;5041071;28;20551;-81
2021/05/10 08:55:00;;;;;;;2.73;2.53;;;23.70;72.00;;;;;;5058690;28;20463;-81
2021/05/10 08:57:26;;;;;;;2.73;2.53;;;23.80;72.20;;;;;;5058782;28;20472;-81
2021/05/10 08:59:52;;;;;;;2.77;2.50;;;23.90;71.70;;;;;;5058687;28;20464;-80
2021/05/10 09:02:30;;;;;;;2.80;2.60;;;23.90;71.90;;;;;;5058006;28;20505;-82
2021/05/10 09:05:09;;;;;;;4.80;2.53;;;23.90;72.00;;;;;;5058504;28;20466;-81
2021/05/10 09:07:35;;;;;;;2.70;2.50;;;23.80;71.00;;;;;;5058477;28;20448;-80
2021/05/10 09:10:04;;;;;;;5.30;2.57;;;23.80;70.80;;;;;;5058462;28;20527;-81
2021/05/10 09:12:44;;;;;;;3.47;2.47;;;23.80;69.80;;;;;;5057704;28;20863;-81
2021/05/10 09:15:23;;;;;;;3.70;2.03;;;23.80;69.40;;;;;;5058345;28;20456;-81
2021/05/10 09:17:53;;;;;;;2.93;2.73;;;23.80;70.00;;;;;;5057687;28;20564;-81
2021/05/10 09:20:21;;;;;;;2.70;2.50;;;23.70;69.60;;;;;;5058673;28;20487;-82
2021/05/10 09:22:53;;;;;;;3.00;2.77;;;23.60;70.20;;;;;;5058716;28;20492;-80
2021/05/10 09:25:21;;;;;;;2.30;2.20;;;23.70;70.10;;;;;;5057550;28;20455;-80
2021/05/10 09:27:48;;;;;;;2.77;2.53;;;23.60;70.40;;;;;;5057012;28;20452;-79
2021/05/10 09:30:20;;;;;;;2.53;2.33;;;23.70;71.40;;;;;;5056944;28;20483;-79
2021/05/10 09:32:48;;;;;;;2.67;2.47;;;23.80;71.70;;;;;;5057811;28;20952;-81
2021/05/10 09:35:18;;;;;;;3.53;3.23;;;23.70;71.90;;;;;;5058244;28;20452;-79
2021/05/10 09:37:45;;;;;;;2.90;2.53;;;23.50;71.70;;;;;;5057622;28;20861;-79
2021/05/10 09:40:12;;;;;;;3.97;3.37;;;23.20;72.20;;;;;;5060318;28;20457;-81
2021/05/10 09:42:50;;;;;;;5.53;3.03;;;23.10;74.00;;;;;;5058554;28;20491;-79
2021/05/10 09:45:34;;;;;;;3.30;3.00;;;23.10;74.70;;;;;;5057534;28;20546;-80
2021/05/10 09:48:13;;;;;;;4.33;2.37;;;22.90;73.70;;;;;;5057795;28;20441;-79
2021/05/10 09:50:42;;;;;;;3.53;2.93;;;22.80;73.40;;;;;;5057432;28;20472;-79
2021/05/10 09:53:12;;;;;;;3.37;2.80;;;22.80;75.00;;;;;;5057135;28;20482;-80
2021/05/10 09:55:51;;;;;;;4.10;2.57;;;22.90;75.60;;;;;;5055359;28;20459;-79
2021/05/10 09:58:20;;;;;;;2.67;2.47;;;23.00;76.90;;;;;;5056247;28;20444;-80
2021/05/10 10:00:52;;;;;;;4.83;2.80;;;23.10;75.20;;;;;;5043672;28;20484;-83
2021/05/10 10:03:31;;;;;;;2.57;2.40;;;23.20;74.50;;;;;;5038665;28;20485;-82
2021/05/10 10:06:00;;;;;;;3.57;2.77;;;23.30;73.80;;;;;;5038877;28;20444;-83
2021/05/10 10:08:27;;;;;;;2.50;2.30;;;23.40;73.40;;;;;;5042353;28;20452;-81
2021/05/10 10:10:53;;;;;;;3.63;1.90;;;23.30;73.30;;;;;;5054534;28;20483;-81
2021/05/10 10:13:20;;;;;;;3.17;2.97;;;23.40;73.70;;;;;;5048889;28;20464;-80
2021/05/10 10:15:47;;;;;;;3.67;1.73;;;23.60;73.30;;;;;;5045572;28;20448;-82
2021/05/10 10:18:17;;;;;;;2.90;2.50;;;23.70;70.60;;;;;;5035483;28;20460;-81
2021/05/10 10:20:44;;;;;;;3.00;1.70;;;23.70;71.00;;;;;;5036071;28;20476;-81
2021/05/10 10:23:16;;;;;;;1.60;1.50;;;23.70;70.10;;;;;;5035202;28;20534;-81
2021/05/10 10:25:43;;;;;;;1.80;1.70;;;23.70;69.60;;;;;;5035974;28;20460;-81
2021/05/10 10:28:13;;;;;;;1.60;1.50;;;23.70;70.20;;;;;;5035662;28;20449;-81
2021/05/10 10:30:42;;;;;;;3.63;1.47;;;23.70;69.00;;;;;;5035747;28;20891;-80
2021/05/10 10:33:13;;;;;;;1.30;1.20;;;23.80;67.90;;;;;;5035692;28;20950;-81
2021/05/10 10:35:44;;;;;;;2.40;2.17;;;23.60;67.20;;;;;;5036522;28;20502;-81
2021/05/10 10:38:12;;;;;;;1.77;1.40;;;23.50;68.50;;;;;;5037290;28;20980;-81
2021/05/10 10:40:39;;;;;;;2.20;1.10;;;23.60;68.70;;;;;;5036597;28;20472;-81
2021/05/10 10:43:22;;;;;;;1.30;1.20;;;23.60;68.30;;;;;;5035401;28;20489;-82
2021/05/10 10:46:19;;;;;;;1.47;1.37;;;23.60;67.50;;;;;;5036389;28;20461;-81
2021/05/10 10:48:46;;;;;;;3.13;1.17;;;23.70;68.20;;;;;;5036069;28;20467;-81
2021/05/10 10:51:14;;;;;;;2.13;1.33;;;23.70;68.90;;;;;;5035946;28;20977;-81
2021/05/10 10:53:45;;;;;;;1.10;1.10;;;23.70;67.50;;;;;;5035415;28;20456;-81
2021/05/10 10:56:11;;;;;;;2.70;1.30;;;23.70;67.80;;;;;;5036377;28;20453;-81
2021/05/10 10:58:42;;;;;;;1.53;1.37;;;23.70;68.60;;;;;;5036176;28;20457;-81
2021/05/10 11:01:20;;;;;;;1.40;1.30;;;23.70;68.00;;;;;;5035680;28;20485;-82
2021/05/10 11:03:48;;;;;;;1.20;1.10;;;23.70;67.80;;;;;;5038257;28;20453;-81
2021/05/10 11:06:15;;;;;;;1.43;1.33;;;23.60;68.00;;;;;;5038215;28;21098;-81
2021/05/10 11:08:47;;;;;;;1.23;1.13;;;23.50;68.20;;;;;;5041404;28;20453;-80
2021/05/10 11:11:29;;;;;;;2.37;1.40;;;23.60;68.80;;;;;;5040990;28;20996;-81
2021/05/10 11:13:58;;;;;;;4.07;1.30;;;23.50;69.00;;;;;;5040840;28;20548;-81
2021/05/10 11:16:47;;;;;;;1.70;1.13;;;23.40;70.10;;;;;;5041143;28;20977;-81
2021/05/10 11:19:34;;;;;;;1.67;1.57;;;23.30;69.90;;;;;;5041387;28;20514;-81
2021/05/10 11:22:03;;;;;;;2.20;1.70;;;23.10;70.30;;;;;;5034162;28;20492;-81
2021/05/10 11:24:32;;;;;;;2.30;1.40;;;23.10;70.90;;;;;;5041120;28;20444;-81
2021/05/10 11:27:02;;;;;;;8.57;2.43;;;22.90;70.80;;;;;;5040866;28;20458;-81
2021/05/10 11:29:50;;;;;;;1.70;1.60;;;22.90;71.80;;;;;;5040768;28;20537;-81
2021/05/10 11:32:28;;;;;;;1.80;1.40;;;22.60;72.10;;;;;;5040656;28;20478;-81
2021/05/10 11:34:56;;;;;;;1.70;1.60;;;22.50;74.70;;;;;;5041023;28;20524;-81
2021/05/10 11:37:26;;;;;;;1.10;1.10;;;22.40;72.60;;;;;;5041060;28;20541;-81
2021/05/10 11:39:55;;;;;;;2.53;1.30;;;22.20;72.50;;;;;;5041509;28;20975;-81
2021/05/10 11:42:26;;;;;;;1.17;1.07;;;22.00;73.30;;;;;;5040337;28;20499;-81
2021/05/10 11:44:55;;;;;;;3.13;1.10;;;21.60;73.40;;;;;;5040445;28;20455;-81
2021/05/10 11:47:22;;;;;;;4.40;1.40;;;21.20;73.70;;;;;;5040830;28;20971;-81
2021/05/10 11:49:50;;;;;;;1.70;1.60;;;21.20;74.70;;;;;;5040236;28;20459;-80
2021/05/10 11:52:18;;;;;;;1.50;1.40;;;21.10;74.80;;;;;;5040141;28;20467;-81
2021/05/10 11:54:47;;;;;;;2.93;1.00;;;21.10;75.00;;;;;;5040682;28;20465;-79
2021/05/10 11:57:15;;;;;;;1.00;0.90;;;21.20;74.90;;;;;;5040533;28;20550;-81
2021/05/10 11:59:45;;;;;;;1.07;0.97;;;21.00;73.40;;;;;;5039981;28;20466;-80
2021/05/10 12:02:22;;;;;;;1.00;0.90;;;21.00;74.50;;;;;;5039578;28;20495;-81
2021/05/10 12:04:50;;;;;;;2.47;1.43;;;20.90;74.70;;;;;;5040300;28;20449;-80
2021/05/10 12:07:18;;;;;;;3.70;1.53;;;20.80;74.60;;;;;;5040385;28;20824;-81
2021/05/10 12:09:47;;;;;;;1.77;1.67;;;20.80;75.30;;;;;;5040203;28;20800;-80
2021/05/10 12:12:31;;;;;;;1.50;1.40;;;20.70;74.70;;;;;;5040200;28;20461;-80
2021/05/10 12:15:08;;;;;;;1.30;1.00;;;20.70;75.30;;;;;;5040247;28;20453;-81
2021/05/10 12:17:36;;;;;;;0.93;0.93;;;20.60;75.10;;;;;;5040436;28;20521;-81
2021/05/10 12:20:08;;;;;;;1.07;0.80;;;20.70;75.50;;;;;;5038995;28;20515;-81
2021/05/10 12:22:37;;;;;;;3.97;1.60;;;20.80;75.80;;;;;;5039747;28;20489;-81
2021/05/10 12:25:13;;;;;;;1.30;1.20;;;20.80;75.60;;;;;;5040463;28;20472;-81
2021/05/10 12:27:59;;;;;;;2.00;1.00;;;20.80;75.70;;;;;;5039522;28;20831;-81
2021/05/10 12:30:29;;;;;;;1.03;0.80;;;20.80;75.40;;;;;;5040232;28;20953;-81
2021/05/10 12:32:59;;;;;;;1.23;0.90;;;20.70;76.10;;;;;;5039424;28;20465;-81
2021/05/10 12:35:27;;;;;;;1.47;1.00;;;20.80;76.30;;;;;;5039343;28;20458;-81
2021/05/10 12:37:55;;;;;;;1.27;1.20;;;20.60;75.70;;;;;;5039558;28;20458;-81
2021/05/10 12:40:24;;;;;;;1.53;1.07;;;20.40;75.90;;;;;;5039201;28;20453;-81
2021/05/10 12:43:10;;;;;;;1.23;1.00;;;20.30;76.50;;;;;;5038828;28;20525;-81
2021/05/10 12:45:38;;;;;;;1.23;0.90;;;20.20;77.00;;;;;;5039645;28;20504;-81
2021/05/10 12:48:21;;;;;;;1.50;1.00;;;20.00;77.60;;;;;;5039360;28;20507;-80
2021/05/10 12:50:49;;;;;;;3.60;1.27;;;20.00;78.10;;;;;;5039798;28;20473;-80
2021/05/10 12:53:28;;;;;;;0.97;0.80;;;20.10;78.70;;;;;;5038812;28;20895;-81
2021/05/10 12:56:03;;;;;;;1.37;1.10;;;20.20;77.70;;;;;;5038801;28;20453;-81
2021/05/10 12:58:34;;;;;;;2.60;1.00;;;20.20;77.10;;;;;;5039343;28;21048;-81